sensor_id;sensor_type;location;lat;lon;timestamp;pressure;altitude;pressure_sealevel;temperature;humidity
68891;BME280;55932;48.702;8.884;2023-06-04T00:01:31;96130;;;12.5;53.5
68891;BME280;55932;48.702;8.884;2023-06-04T00:04:02;96130;;;12.5;54
68891;BME280;55932;48.702;8.884;2023-06-04T00:06:32;96130;;;12.4;54
68891;BME280;55932;48.702;8.884;2023-06-04T00:09:10;96130;;;12.3;54
68891;BME280;55932;48.702;8.884;2023-06-04T00:11:41;96130;;;12.3;54
68891;BME280;55932;48.702;8.884;2023-06-04T00:14:13;96130;;;12.2;54
68891;BME280;55932;48.702;8.884;2023-06-04T00:16:43;96130;;;12.1;54
68891;BME280;55932;48.702;8.884;2023-06-04T00:19:14;96120;;;12;54
68891;BME280;55932;48.702;8.884;2023-06-04T00:21:45;96120;;;12.1;54
68891;BME280;55932;48.702;8.884;2023-06-04T00:24:22;96110;;;12;54
68891;BME280;55932;48.702;8.884;2023-06-04T00:26:53;96120;;;12;54
68891;BME280;55932;48.702;8.884;2023-06-04T00:31:49;96120;;;12;54
68891;BME280;55932;48.702;8.884;2023-06-04T00:36:56;96130;;;11.8;54.5
68891;BME280;55932;48.702;8.884;2023-06-04T00:39:27;96130;;;11.6;54.5
68891;BME280;55932;48.702;8.884;2023-06-04T00:41:50;96130;;;11.5;54.5
68891;BME280;55932;48.702;8.884;2023-06-04T00:44:21;96120;;;11.4;54.5
68891;BME280;55932;48.702;8.884;2023-06-04T00:46:52;96120;;;11.4;54.5
68891;BME280;55932;48.702;8.884;2023-06-04T00:49:23;96130;;;11.4;54.5
68891;BME280;55932;48.702;8.884;2023-06-04T00:52:01;96130;;;11.4;54.5
68891;BME280;55932;48.702;8.884;2023-06-04T00:54:32;96130;;;11.4;54.5
68891;BME280;55932;48.702;8.884;2023-06-04T00:59:28;96130;;;11.4;54.5
68891;BME280;55932;48.702;8.884;2023-06-04T01:02:00;96130;;;11.3;54.5
68891;BME280;55932;48.702;8.884;2023-06-04T01:04:30;96130;;;11.2;54.5
68891;BME280;55932;48.702;8.884;2023-06-04T01:07:01;96140;;;11.2;54.5
68891;BME280;55932;48.702;8.884;2023-06-04T01:09:31;96140;;;11.2;54.5
68891;BME280;55932;48.702;8.884;2023-06-04T01:12:04;96130;;;11.3;54.5
68891;BME280;55932;48.702;8.884;2023-06-04T01:17:07;96130;;;11.3;54.5
68891;BME280;55932;48.702;8.884;2023-06-04T01:19:57;96130;;;11.2;54.5
68891;BME280;55932;48.702;8.884;2023-06-04T01:22:17;96140;;;11.1;54.5
68891;BME280;55932;48.702;8.884;2023-06-04T01:27:01;96140;;;11;54.5
68891;BME280;55932;48.702;8.884;2023-06-04T01:29:32;96140;;;11;54.5
68891;BME280;55932;48.702;8.884;2023-06-04T01:32:03;96140;;;11;54.5
68891;BME280;55932;48.702;8.884;2023-06-04T01:34:42;96130;;;10.9;54.5
68891;BME280;55932;48.702;8.884;2023-06-04T01:37:04;96140;;;10.9;54.5
68891;BME280;55932;48.702;8.884;2023-06-04T01:39:36;96140;;;10.9;54.5
68891;BME280;55932;48.702;8.884;2023-06-04T01:42:06;96140;;;10.9;54.5
68891;BME280;55932;48.702;8.884;2023-06-04T01:49:38;96130;;;10.6;54.5
68891;BME280;55932;48.702;8.884;2023-06-04T01:54:47;96140;;;10.6;54.5
68891;BME280;55932;48.702;8.884;2023-06-04T01:57:17;96140;;;10.6;54.5
68891;BME280;55932;48.702;8.884;2023-06-04T01:59:47;96140;;;10.6;54.5
68891;BME280;55932;48.702;8.884;2023-06-04T02:02:18;96140;;;10.7;54.5
68891;BME280;55932;48.702;8.884;2023-06-04T02:04:49;96140;;;10.5;55
68891;BME280;55932;48.702;8.884;2023-06-04T02:07:20;96140;;;10.4;55
68891;BME280;55932;48.702;8.884;2023-06-04T02:09:51;96140;;;10.3;55
68891;BME280;55932;48.702;8.884;2023-06-04T02:12:22;96140;;;10.2;55.5
68891;BME280;55932;48.702;8.884;2023-06-04T02:14:53;96140;;;10.2;55.5
68891;BME280;55932;48.702;8.884;2023-06-04T02:19:48;96140;;;10.3;55.5
68891;BME280;55932;48.702;8.884;2023-06-04T02:22:19;96140;;;10.3;55.5
68891;BME280;55932;48.702;8.884;2023-06-04T02:24:50;96140;;;10.4;55.5
68891;BME280;55932;48.702;8.884;2023-06-04T02:27:20;96140;;;10.3;55.5
68891;BME280;55932;48.702;8.884;2023-06-04T02:29:51;96140;;;10.2;55.5
68891;BME280;55932;48.702;8.884;2023-06-04T02:32:22;96140;;;10.1;55.5
68891;BME280;55932;48.702;8.884;2023-06-04T02:34:53;96140;;;10;55.5
68891;BME280;55932;48.702;8.884;2023-06-04T02:37:23;96150;;;9.9;56
68891;BME280;55932;48.702;8.884;2023-06-04T02:39:54;96140;;;9.8;56
68891;BME280;55932;48.702;8.884;2023-06-04T02:47:27;96150;;;9.7;56
68891;BME280;55932;48.702;8.884;2023-06-04T02:49:57;96140;;;9.7;56
68891;BME280;55932;48.702;8.884;2023-06-04T02:52:35;96150;;;9.6;56
68891;BME280;55932;48.702;8.884;2023-06-04T02:55:06;96150;;;9.6;56
68891;BME280;55932;48.702;8.884;2023-06-04T02:57:37;96150;;;9.6;56
68891;BME280;55932;48.702;8.884;2023-06-04T03:00:08;96150;;;9.6;56
68891;BME280;55932;48.702;8.884;2023-06-04T03:02:32;96150;;;9.7;56
68891;BME280;55932;48.702;8.884;2023-06-04T03:05:02;96140;;;9.8;56
68891;BME280;55932;48.702;8.884;2023-06-04T03:17:36;96150;;;9.8;56
68891;BME280;55932;48.702;8.884;2023-06-04T03:20:07;96150;;;9.8;56
68891;BME280;55932;48.702;8.884;2023-06-04T03:22:38;96160;;;9.8;56
68891;BME280;55932;48.702;8.884;2023-06-04T03:25:22;96160;;;9.8;56
68891;BME280;55932;48.702;8.884;2023-06-04T03:27:52;96170;;;9.8;56
68891;BME280;55932;48.702;8.884;2023-06-04T03:30:15;96170;;;9.7;56
68891;BME280;55932;48.702;8.884;2023-06-04T03:32:46;96170;;;9.7;56
68891;BME280;55932;48.702;8.884;2023-06-04T03:35:17;96170;;;9.8;55.5
68891;BME280;55932;48.702;8.884;2023-06-04T03:37:48;96170;;;9.8;55.5
68891;BME280;55932;48.702;8.884;2023-06-04T03:40:26;96170;;;9.8;55.5
68891;BME280;55932;48.702;8.884;2023-06-04T03:45:21;96170;;;9.6;56
68891;BME280;55932;48.702;8.884;2023-06-04T03:47:53;96170;;;9.6;56
68891;BME280;55932;48.702;8.884;2023-06-04T03:50:23;96170;;;9.8;55.5
68891;BME280;55932;48.702;8.884;2023-06-04T03:52:54;96180;;;9.8;55.5
68891;BME280;55932;48.702;8.884;2023-06-04T03:55:25;96180;;;9.7;55.5
68891;BME280;55932;48.702;8.884;2023-06-04T03:57:56;96180;;;9.6;56
68891;BME280;55932;48.702;8.884;2023-06-04T04:02:58;96180;;;9.6;56
68891;BME280;55932;48.702;8.884;2023-06-04T04:05:29;96180;;;9.7;56
68891;BME280;55932;48.702;8.884;2023-06-04T04:08:06;96180;;;9.8;56
68891;BME280;55932;48.702;8.884;2023-06-04T04:13:02;96180;;;9.8;56
68891;BME280;55932;48.702;8.884;2023-06-04T04:15:32;96180;;;9.8;56
68891;BME280;55932;48.702;8.884;2023-06-04T04:18:03;96180;;;9.8;56
68891;BME280;55932;48.702;8.884;2023-06-04T04:20:35;96180;;;9.9;56
68891;BME280;55932;48.702;8.884;2023-06-04T04:23:06;96180;;;10;55.5
68891;BME280;55932;48.702;8.884;2023-06-04T04:25:36;96180;;;10.1;55.5
68891;BME280;55932;48.702;8.884;2023-06-04T04:28:07;96180;;;10.3;55.5
68891;BME280;55932;48.702;8.884;2023-06-04T04:30:31;96180;;;10.5;55
68891;BME280;55932;48.702;8.884;2023-06-04T04:40:34;96190;;;10.4;55.5
68891;BME280;55932;48.702;8.884;2023-06-04T04:43:05;96190;;;10.5;55.5
68891;BME280;55932;48.702;8.884;2023-06-04T04:45:36;96200;;;10.6;55.5
68891;BME280;55932;48.702;8.884;2023-06-04T04:48:06;96200;;;10.6;55.5
68891;BME280;55932;48.702;8.884;2023-06-04T04:50:37;96200;;;10.8;55
68891;BME280;55932;48.702;8.884;2023-06-04T04:53:08;96190;;;11.1;55
68891;BME280;55932;48.702;8.884;2023-06-04T04:55:39;96190;;;11.3;54.5
68891;BME280;55932;48.702;8.884;2023-06-04T04:58:10;96190;;;11.4;54.5
68891;BME280;55932;48.702;8.884;2023-06-04T05:08:32;96200;;;12.1;54
68891;BME280;55932;48.702;8.884;2023-06-04T05:11:09;96200;;;12.6;53
68891;BME280;55932;48.702;8.884;2023-06-04T05:13:26;96190;;;13.6;51
68891;BME280;55932;48.702;8.884;2023-06-04T05:15:56;96210;;;13.4;52
68891;BME280;55932;48.702;8.884;2023-06-04T05:20:49;96210;;;13.1;52.5
68891;BME280;55932;48.702;8.884;2023-06-04T05:23:20;96210;;;13.1;53
68891;BME280;55932;48.702;8.884;2023-06-04T05:25:52;96220;;;13.1;53
68891;BME280;55932;48.702;8.884;2023-06-04T05:35:48;96220;;;13.4;53
68891;BME280;55932;48.702;8.884;2023-06-04T05:38:19;96220;;;13.4;53
68891;BME280;55932;48.702;8.884;2023-06-04T05:40:49;96220;;;13.5;53
68891;BME280;55932;48.702;8.884;2023-06-04T05:43:20;96220;;;13.6;53
68891;BME280;55932;48.702;8.884;2023-06-04T05:48:34;96230;;;13.6;53.5
68891;BME280;55932;48.702;8.884;2023-06-04T05:51:05;96230;;;13.7;53.5
68891;BME280;55932;48.702;8.884;2023-06-04T05:53:35;96220;;;13.8;53
68891;BME280;55932;48.702;8.884;2023-06-04T05:56:00;96220;;;13.8;53
68891;BME280;55932;48.702;8.884;2023-06-04T05:58:32;96230;;;14;53
68891;BME280;55932;48.702;8.884;2023-06-04T06:01:08;96230;;;14.1;53
68891;BME280;55932;48.702;8.884;2023-06-04T06:03:46;96240;;;14.2;53
68891;BME280;55932;48.702;8.884;2023-06-04T06:06:16;96230;;;14.2;53
68891;BME280;55932;48.702;8.884;2023-06-04T06:08:40;96240;;;14.2;53
68891;BME280;55932;48.702;8.884;2023-06-04T06:11:04;96240;;;14.3;53
68891;BME280;55932;48.702;8.884;2023-06-04T06:13:35;96240;;;14.4;53
68891;BME280;55932;48.702;8.884;2023-06-04T06:16:06;96230;;;14.5;53
68891;BME280;55932;48.702;8.884;2023-06-04T06:18:37;96240;;;14.6;53
68891;BME280;55932;48.702;8.884;2023-06-04T06:21:08;96240;;;14.7;53
68891;BME280;55932;48.702;8.884;2023-06-04T06:23:45;96240;;;14.8;53
68891;BME280;55932;48.702;8.884;2023-06-04T06:26:16;96240;;;15;53
68891;BME280;55932;48.702;8.884;2023-06-04T06:31:31;96250;;;15.1;52.5
68891;BME280;55932;48.702;8.884;2023-06-04T06:33:48;96250;;;15.3;52.5
68891;BME280;55932;48.702;8.884;2023-06-04T06:41:20;96260;;;15.7;52.5
68891;BME280;55932;48.702;8.884;2023-06-04T06:43:57;96260;;;15.8;52.5
68891;BME280;55932;48.702;8.884;2023-06-04T06:46:27;96250;;;16;52.5
68891;BME280;55932;48.702;8.884;2023-06-04T06:49:04;96250;;;16;52.5
68891;BME280;55932;48.702;8.884;2023-06-04T06:51:22;96250;;;16.1;52
68891;BME280;55932;48.702;8.884;2023-06-04T06:53:52;96250;;;16.2;52
68891;BME280;55932;48.702;8.884;2023-06-04T06:56:22;96250;;;16.4;52
68891;BME280;55932;48.702;8.884;2023-06-04T07:01:16;96250;;;16.8;51.5
68891;BME280;55932;48.702;8.884;2023-06-04T07:03:47;96250;;;17.4;51
68891;BME280;55932;48.702;8.884;2023-06-04T07:06:18;96240;;;19.1;49.5
68891;BME280;55932;48.702;8.884;2023-06-04T07:08:55;96240;;;20.8;47.5
68891;BME280;55932;48.702;8.884;2023-06-04T07:14:10;96240;;;24.2;43
68891;BME280;55932;48.702;8.884;2023-06-04T07:16:27;96240;;;24.7;43.5
68891;BME280;55932;48.702;8.884;2023-06-04T07:18:55;96240;;;25.5;43
68891;BME280;55932;48.702;8.884;2023-06-04T07:21:21;96240;;;25.6;43
68891;BME280;55932;48.702;8.884;2023-06-04T07:23:52;96240;;;25.5;43.5
68891;BME280;55932;48.702;8.884;2023-06-04T07:26:23;96230;;;26.7;42.5
68891;BME280;55932;48.702;8.884;2023-06-04T07:28:54;96240;;;27;42.5
68891;BME280;55932;48.702;8.884;2023-06-04T07:31:25;96240;;;27.1;43.5
68891;BME280;55932;48.702;8.884;2023-06-04T07:34:03;96230;;;28.2;42
68891;BME280;55932;48.702;8.884;2023-06-04T07:38:59;96230;;;29.8;41
68891;BME280;55932;48.702;8.884;2023-06-04T07:46:36;96230;;;26.3;47
68891;BME280;55932;48.702;8.884;2023-06-04T07:49:06;96230;;;25.8;47.5
68891;BME280;55932;48.702;8.884;2023-06-04T07:51:36;96230;;;26.5;47
68891;BME280;55932;48.702;8.884;2023-06-04T07:54:07;96230;;;27;46
68891;BME280;55932;48.702;8.884;2023-06-04T07:59:07;96220;;;27.1;46.5
68891;BME280;55932;48.702;8.884;2023-06-04T08:01:38;96220;;;28.8;44
68891;BME280;55932;48.702;8.884;2023-06-04T08:06:34;96220;;;28.2;46
68891;BME280;55932;48.702;8.884;2023-06-04T08:09:05;96230;;;28.1;46
68891;BME280;55932;48.702;8.884;2023-06-04T08:14:06;96230;;;26.8;48
68891;BME280;55932;48.702;8.884;2023-06-04T08:16:37;96220;;;27.6;47
68891;BME280;55932;48.702;8.884;2023-06-04T08:19:08;96220;;;27.5;47
68891;BME280;55932;48.702;8.884;2023-06-04T08:24:03;96220;;;27.8;46.5
68891;BME280;55932;48.702;8.884;2023-06-04T08:31:35;96220;;;28.9;45
68891;BME280;55932;48.702;8.884;2023-06-04T08:34:06;96220;;;29.3;45
68891;BME280;55932;48.702;8.884;2023-06-04T08:36:37;96220;;;28.3;47
68891;BME280;55932;48.702;8.884;2023-06-04T08:39:08;96220;;;28.5;46.5
68891;BME280;55932;48.702;8.884;2023-06-04T08:41:42;96220;;;28.9;46.5
68891;BME280;55932;48.702;8.884;2023-06-04T08:44:17;96220;;;28.6;46.5
68891;BME280;55932;48.702;8.884;2023-06-04T08:46:47;96220;;;27.7;48
68891;BME280;55932;48.702;8.884;2023-06-04T08:49:23;96220;;;27.6;47.5
68891;BME280;55932;48.702;8.884;2023-06-04T08:54:12;96220;;;27.7;47.5
68891;BME280;55932;48.702;8.884;2023-06-04T08:56:43;96220;;;27.9;47
68891;BME280;55932;48.702;8.884;2023-06-04T09:19:20;96250;;;27;48
68891;BME280;55932;48.702;8.884;2023-06-04T09:24:39;96250;;;28.2;47
68891;BME280;55932;48.702;8.884;2023-06-04T09:26:53;96260;;;28;47
68891;BME280;55932;48.702;8.884;2023-06-04T09:34:26;96250;;;27.1;48
68891;BME280;55932;48.702;8.884;2023-06-04T09:36:56;96260;;;26.8;48
68891;BME280;55932;48.702;8.884;2023-06-04T09:39:40;96260;;;27.4;48
68891;BME280;55932;48.702;8.884;2023-06-04T09:42:12;96260;;;27.3;47.5
68891;BME280;55932;48.702;8.884;2023-06-04T09:44:44;96260;;;27.7;47.5
68891;BME280;55932;48.702;8.884;2023-06-04T09:47:15;96260;;;28.3;46.5
68891;BME280;55932;48.702;8.884;2023-06-04T09:49:42;96260;;;27.5;47.5
68891;BME280;55932;48.702;8.884;2023-06-04T09:52:11;96250;;;27.6;47.5
68891;BME280;55932;48.702;8.884;2023-06-04T09:54:41;96250;;;28.1;46.5
68891;BME280;55932;48.702;8.884;2023-06-04T09:57:18;96250;;;28.5;46
68891;BME280;55932;48.702;8.884;2023-06-04T09:59:36;96250;;;28.1;47
68891;BME280;55932;48.702;8.884;2023-06-04T10:02:07;96250;;;28.2;47
68891;BME280;55932;48.702;8.884;2023-06-04T10:04:37;96250;;;27.8;47.5
68891;BME280;55932;48.702;8.884;2023-06-04T10:07:05;96250;;;27.6;47.5
68891;BME280;55932;48.702;8.884;2023-06-04T10:09:32;96250;;;27.6;47.5
68891;BME280;55932;48.702;8.884;2023-06-04T10:12:09;96260;;;27.5;47.5
68891;BME280;55932;48.702;8.884;2023-06-04T10:14:39;96250;;;27.3;47.5
68891;BME280;55932;48.702;8.884;2023-06-04T10:24:36;96250;;;27.3;47.5
68891;BME280;55932;48.702;8.884;2023-06-04T10:27:07;96250;;;27.7;47
68891;BME280;55932;48.702;8.884;2023-06-04T10:29:38;96240;;;27.6;47.5
68891;BME280;55932;48.702;8.884;2023-06-04T10:32:09;96240;;;27.7;47.5
68891;BME280;55932;48.702;8.884;2023-06-04T10:34:41;96230;;;28;47
68891;BME280;55932;48.702;8.884;2023-06-04T10:37:20;96230;;;28;47
68891;BME280;55932;48.702;8.884;2023-06-04T10:39:51;96240;;;28;47
68891;BME280;55932;48.702;8.884;2023-06-04T10:42:18;96240;;;28.1;47
68891;BME280;55932;48.702;8.884;2023-06-04T10:44:50;96240;;;27.8;47
68891;BME280;55932;48.702;8.884;2023-06-04T10:47:29;96240;;;27.9;47
68891;BME280;55932;48.702;8.884;2023-06-04T10:55:12;96240;;;27.2;47.5
68891;BME280;55932;48.702;8.884;2023-06-04T10:57:29;96240;;;27.3;47.5
68891;BME280;55932;48.702;8.884;2023-06-04T11:02:30;96230;;;27;47.5
68891;BME280;55932;48.702;8.884;2023-06-04T11:05:02;96240;;;27.6;47
68891;BME280;55932;48.702;8.884;2023-06-04T11:07:26;96240;;;27.3;47.5
68891;BME280;55932;48.702;8.884;2023-06-04T11:09:50;96230;;;27.4;47.5
68891;BME280;55932;48.702;8.884;2023-06-04T11:14:54;96230;;;28.5;46
68891;BME280;55932;48.702;8.884;2023-06-04T11:19:52;96230;;;29.1;46
68891;BME280;55932;48.702;8.884;2023-06-04T11:22:23;96230;;;28.2;47
68891;BME280;55932;48.702;8.884;2023-06-04T11:24:57;96230;;;28.1;47
68891;BME280;55932;48.702;8.884;2023-06-04T11:27:25;96230;;;28.1;47
68891;BME280;55932;48.702;8.884;2023-06-04T11:30:02;96230;;;28.1;47
68891;BME280;55932;48.702;8.884;2023-06-04T11:32:33;96230;;;28.4;47
68891;BME280;55932;48.702;8.884;2023-06-04T11:37:35;96230;;;28.2;47
68891;BME280;55932;48.702;8.884;2023-06-04T11:40:21;96220;;;28.7;46.5
68891;BME280;55932;48.702;8.884;2023-06-04T11:42:44;96230;;;29;46
68891;BME280;55932;48.702;8.884;2023-06-04T11:50:16;96230;;;27.8;47
68891;BME280;55932;48.702;8.884;2023-06-04T11:52:47;96230;;;27.6;47.5
68891;BME280;55932;48.702;8.884;2023-06-04T11:57:40;96230;;;29.2;46
68891;BME280;55932;48.702;8.884;2023-06-04T12:00:11;96220;;;29.4;45.5
68891;BME280;55932;48.702;8.884;2023-06-04T12:02:51;96220;;;29.4;45.5
68891;BME280;55932;48.702;8.884;2023-06-04T12:07:44;96220;;;28.8;46.5
68891;BME280;55932;48.702;8.884;2023-06-04T12:10:21;96220;;;29;46
68891;BME280;55932;48.702;8.884;2023-06-04T12:12:54;96210;;;28.9;46.5
68891;BME280;55932;48.702;8.884;2023-06-04T12:15:28;96210;;;28.4;47
68891;BME280;55932;48.702;8.884;2023-06-04T12:20:18;96210;;;29.2;46
68891;BME280;55932;48.702;8.884;2023-06-04T12:22:47;96210;;;29.2;46
68891;BME280;55932;48.702;8.884;2023-06-04T12:25:25;96210;;;28.7;46.5
68891;BME280;55932;48.702;8.884;2023-06-04T12:30:19;96210;;;29.3;45.5
68891;BME280;55932;48.702;8.884;2023-06-04T12:32:50;96210;;;29.3;45.5
68891;BME280;55932;48.702;8.884;2023-06-04T12:37:52;96210;;;29.6;45
68891;BME280;55932;48.702;8.884;2023-06-04T12:40:29;96210;;;29.5;45.5
68891;BME280;55932;48.702;8.884;2023-06-04T12:48:00;96210;;;29.9;45
68891;BME280;55932;48.702;8.884;2023-06-04T12:50:34;96210;;;29.7;45.5
68891;BME280;55932;48.702;8.884;2023-06-04T12:53:01;96210;;;29.3;46
68891;BME280;55932;48.702;8.884;2023-06-04T12:57:55;96210;;;28.2;47
68891;BME280;55932;48.702;8.884;2023-06-04T13:00:26;96210;;;29.9;45
68891;BME280;55932;48.702;8.884;2023-06-04T13:02:58;96210;;;30.4;45
68891;BME280;55932;48.702;8.884;2023-06-04T13:07:51;96200;;;30.1;45.5
68891;BME280;55932;48.702;8.884;2023-06-04T13:10:22;96200;;;28.3;47
68891;BME280;55932;48.702;8.884;2023-06-04T13:12:53;96210;;;28.5;47.5
68891;BME280;55932;48.702;8.884;2023-06-04T13:20:25;96210;;;27.2;47.5
68891;BME280;55932;48.702;8.884;2023-06-04T13:22:56;96210;;;26.1;49
68891;BME280;55932;48.702;8.884;2023-06-04T13:32:59;96210;;;26;49
68891;BME280;55932;48.702;8.884;2023-06-04T13:38:20;96200;;;27.2;47.5
68891;BME280;55932;48.702;8.884;2023-06-04T13:43:13;96200;;;29.5;45
68891;BME280;55932;48.702;8.884;2023-06-04T13:45:46;96200;;;29.6;45
68891;BME280;55932;48.702;8.884;2023-06-04T13:48:14;96200;;;29.5;45
68891;BME280;55932;48.702;8.884;2023-06-04T13:50:44;96200;;;28.4;45.5
68891;BME280;55932;48.702;8.884;2023-06-04T13:53:28;96200;;;27.2;47
68891;BME280;55932;48.702;8.884;2023-06-04T13:55:48;96200;;;26.6;47.5
68891;BME280;55932;48.702;8.884;2023-06-04T13:58:15;96200;;;26.3;48
68891;BME280;55932;48.702;8.884;2023-06-04T14:03:09;96200;;;27.2;47
68891;BME280;55932;48.702;8.884;2023-06-04T14:05:41;96190;;;27.2;47
68891;BME280;55932;48.702;8.884;2023-06-04T14:08:16;96190;;;28.5;45.5
68891;BME280;55932;48.702;8.884;2023-06-04T14:10:49;96190;;;29.1;45
68891;BME280;55932;48.702;8.884;2023-06-04T14:13:20;96190;;;29.2;45
68891;BME280;55932;48.702;8.884;2023-06-04T14:15:57;96190;;;27.8;46
68891;BME280;55932;48.702;8.884;2023-06-04T14:18:17;96190;;;28.4;46
68891;BME280;55932;48.702;8.884;2023-06-04T14:20:45;96190;;;28.8;45.5
68891;BME280;55932;48.702;8.884;2023-06-04T14:25:40;96190;;;29.1;45
68891;BME280;55932;48.702;8.884;2023-06-04T14:28:11;96190;;;28.2;45.5
68891;BME280;55932;48.702;8.884;2023-06-04T14:33:12;96190;;;27.8;45.5
68891;BME280;55932;48.702;8.884;2023-06-04T14:35:43;96190;;;28.2;45.5
68891;BME280;55932;48.702;8.884;2023-06-04T14:38:14;96190;;;28.4;45
68891;BME280;55932;48.702;8.884;2023-06-04T14:40:45;96190;;;29.4;44.5
68891;BME280;55932;48.702;8.884;2023-06-04T14:43:16;96200;;;29.8;44
68891;BME280;55932;48.702;8.884;2023-06-04T14:45:46;96190;;;29.9;43.5
68891;BME280;55932;48.702;8.884;2023-06-04T14:48:21;96180;;;30.3;43
68891;BME280;55932;48.702;8.884;2023-06-04T14:50:48;96180;;;29.6;44
68891;BME280;55932;48.702;8.884;2023-06-04T14:53:19;96180;;;29.6;43.5
68891;BME280;55932;48.702;8.884;2023-06-04T14:55:50;96180;;;29.6;43.5
68891;BME280;55932;48.702;8.884;2023-06-04T15:03:22;96180;;;29.1;44
68891;BME280;55932;48.702;8.884;2023-06-04T15:05:53;96180;;;28.7;44
68891;BME280;55932;48.702;8.884;2023-06-04T15:08:24;96180;;;29;44
68891;BME280;55932;48.702;8.884;2023-06-04T15:11:01;96180;;;29;43.5
68891;BME280;55932;48.702;8.884;2023-06-04T15:18:36;96170;;;29.8;42.5
68891;BME280;55932;48.702;8.884;2023-06-04T15:23:49;96170;;;29.8;42
68891;BME280;55932;48.702;8.884;2023-06-04T15:26:25;96170;;;29.6;42.5
68891;BME280;55932;48.702;8.884;2023-06-04T15:28:43;96170;;;29.2;43
68891;BME280;55932;48.702;8.884;2023-06-04T15:31:14;96170;;;29.3;42.5
68891;BME280;55932;48.702;8.884;2023-06-04T15:33:46;96160;;;28.9;43
68891;BME280;55932;48.702;8.884;2023-06-04T15:36:13;96160;;;28.9;43
68891;BME280;55932;48.702;8.884;2023-06-04T15:38:43;96160;;;29;43
68891;BME280;55932;48.702;8.884;2023-06-04T15:41:13;96160;;;29.1;43
68891;BME280;55932;48.702;8.884;2023-06-04T15:43:43;96160;;;29.3;42.5
68891;BME280;55932;48.702;8.884;2023-06-04T15:46:14;96160;;;29;42.5
68891;BME280;55932;48.702;8.884;2023-06-04T15:48:39;96160;;;28.6;43
68891;BME280;55932;48.702;8.884;2023-06-04T15:51:10;96150;;;29.1;42.5
68891;BME280;55932;48.702;8.884;2023-06-04T15:53:40;96160;;;28.9;43
68891;BME280;55932;48.702;8.884;2023-06-04T15:56:11;96150;;;28.6;43
68891;BME280;55932;48.702;8.884;2023-06-04T16:01:06;96150;;;28.4;43.5
68891;BME280;55932;48.702;8.884;2023-06-04T16:03:37;96150;;;28.4;43.5
68891;BME280;55932;48.702;8.884;2023-06-04T16:06:09;96140;;;28.1;43.5
68891;BME280;55932;48.702;8.884;2023-06-04T16:08:38;96150;;;28.5;43
68891;BME280;55932;48.702;8.884;2023-06-04T16:11:10;96150;;;28.3;43.5
68891;BME280;55932;48.702;8.884;2023-06-04T16:13:40;96150;;;28.3;43.5
68891;BME280;55932;48.702;8.884;2023-06-04T16:16:11;96150;;;28.6;43
68891;BME280;55932;48.702;8.884;2023-06-04T16:18:48;96140;;;28.9;42.5
68891;BME280;55932;48.702;8.884;2023-06-04T16:21:26;96140;;;28.7;43
68891;BME280;55932;48.702;8.884;2023-06-04T16:23:56;96140;;;28.9;42.5
68891;BME280;55932;48.702;8.884;2023-06-04T16:31:29;96140;;;27.9;44
68891;BME280;55932;48.702;8.884;2023-06-04T16:33:59;96140;;;27.9;44
68891;BME280;55932;48.702;8.884;2023-06-04T16:41:30;96140;;;27.3;44
68891;BME280;55932;48.702;8.884;2023-06-04T16:43:59;96130;;;27.4;44
68891;BME280;55932;48.702;8.884;2023-06-04T16:46:36;96130;;;27.4;43.5
68891;BME280;55932;48.702;8.884;2023-06-04T16:49:13;96130;;;27.3;43.5
68891;BME280;55932;48.702;8.884;2023-06-04T16:51:30;96130;;;27;43.5
68891;BME280;55932;48.702;8.884;2023-06-04T16:54:02;96130;;;26.2;44.5
68891;BME280;55932;48.702;8.884;2023-06-04T16:56:30;96130;;;25.3;45
68891;BME280;55932;48.702;8.884;2023-06-04T17:01:24;96140;;;24.5;46
68891;BME280;55932;48.702;8.884;2023-06-04T17:03:55;96130;;;24.4;46.5
68891;BME280;55932;48.702;8.884;2023-06-04T17:06:33;96130;;;24.2;46.5
68891;BME280;55932;48.702;8.884;2023-06-04T17:08:57;96130;;;24;47
68891;BME280;55932;48.702;8.884;2023-06-04T17:14:06;96140;;;23.7;47.5
68891;BME280;55932;48.702;8.884;2023-06-04T17:16:36;96140;;;23.5;47.5
68891;BME280;55932;48.702;8.884;2023-06-04T17:21:30;96140;;;23.4;47.5
68891;BME280;55932;48.702;8.884;2023-06-04T17:24:02;96130;;;23.3;47.5
68891;BME280;55932;48.702;8.884;2023-06-04T17:28:55;96130;;;23.2;48
68891;BME280;55932;48.702;8.884;2023-06-04T17:31:26;96140;;;22.9;48
68891;BME280;55932;48.702;8.884;2023-06-04T17:38:59;96140;;;22.6;48
68891;BME280;55932;48.702;8.884;2023-06-04T17:41:30;96140;;;22.6;48.5
68891;BME280;55932;48.702;8.884;2023-06-04T17:44:00;96140;;;22.5;48.5
68891;BME280;55932;48.702;8.884;2023-06-04T17:46:38;96150;;;22.4;48.5
68891;BME280;55932;48.702;8.884;2023-06-04T17:49:09;96140;;;22.3;48.5
68891;BME280;55932;48.702;8.884;2023-06-04T17:54:03;96150;;;22.1;48.5
68891;BME280;55932;48.702;8.884;2023-06-04T17:56:35;96150;;;22;48.5
68891;BME280;55932;48.702;8.884;2023-06-04T18:01:36;96150;;;21.7;49
68891;BME280;55932;48.702;8.884;2023-06-04T18:04:06;96150;;;21.6;49
68891;BME280;55932;48.702;8.884;2023-06-04T18:11:41;96150;;;21.3;49
68891;BME280;55932;48.702;8.884;2023-06-04T18:16:53;96160;;;21.1;49.5
68891;BME280;55932;48.702;8.884;2023-06-04T18:19:24;96170;;;20.9;49.5
68891;BME280;55932;48.702;8.884;2023-06-04T18:24:18;96170;;;20.7;49.5
68891;BME280;55932;48.702;8.884;2023-06-04T18:26:49;96170;;;20.6;49.5
68891;BME280;55932;48.702;8.884;2023-06-04T18:29:22;96160;;;20.4;49.5
68891;BME280;55932;48.702;8.884;2023-06-04T18:31:50;96170;;;20.3;50
68891;BME280;55932;48.702;8.884;2023-06-04T18:36:59;96170;;;20.1;50
68891;BME280;55932;48.702;8.884;2023-06-04T18:42:14;96170;;;20;50
68891;BME280;55932;48.702;8.884;2023-06-04T18:47:06;96170;;;19.8;50
68891;BME280;55932;48.702;8.884;2023-06-04T18:49:38;96170;;;19.7;50
68891;BME280;55932;48.702;8.884;2023-06-04T18:52:12;96170;;;19.7;50
68891;BME280;55932;48.702;8.884;2023-06-04T18:56:56;96160;;;19.4;50
68891;BME280;55932;48.702;8.884;2023-06-04T18:59:27;96160;;;19.3;50
68891;BME280;55932;48.702;8.884;2023-06-04T19:01:58;96160;;;19.1;50
68891;BME280;55932;48.702;8.884;2023-06-04T19:04:29;96160;;;18.9;50.5
68891;BME280;55932;48.702;8.884;2023-06-04T19:07:01;96170;;;18.9;50.5
68891;BME280;55932;48.702;8.884;2023-06-04T19:09:31;96160;;;18.8;50.5
68891;BME280;55932;48.702;8.884;2023-06-04T19:12:02;96170;;;18.6;50.5